< < Back
Terminal Aerodrome Forecast


Current Version              Previous Versions:   1  2  3  4  5  6  7  8  9  

Terminal Aerodrome Forecast

889
FTUS42 KGSP 271128
TAFAVL
TAF
KAVL 271128Z 2712/2812 VRB02KT 6SM BR VCSH SCT004 BKN050
      TEMPO 2712/2713 BKN004
     FM271500 33006KT P6SM VCSH BKN050
     FM271700 30005KT 6SM -SHRA VCTS BKN050CB
     FM272100 31005KT P6SM BKN050 PROB30 2721/2724 4SM TSRA OVC025CB
     FM280800 33003KT 3SM BR SCT020=

Latest METAR

879
SAUS70 KWBC 271200 RRF
MTRAVL
METAR KAVL 271154Z 00000KT 9SM OVC004 18/17 A3004 RMK AO2 RAE21 SLP153
P0000 60008 70053 T01780167 10178 20178 55001


USA.gov is the U.S. government's official web portal to all federal, state and local government web resources and services.